createdAt,value
2022-08-29T00:00:18.834Z,75.03
2022-08-29T00:04:22.235Z,75.04
2022-08-29T00:08:25.773Z,75.12
2022-08-29T00:12:30.170Z,74.59
2022-08-29T00:16:33.409Z,74.74
2022-08-29T00:20:37.872Z,74.67
2022-08-29T00:24:41.004Z,74.62
2022-08-29T00:28:45.579Z,74.63
2022-08-29T00:32:49.300Z,74.12
2022-08-29T00:36:53.326Z,74.73
2022-08-29T00:40:58.596Z,74.75
2022-08-29T00:45:03.283Z,74.65
2022-08-29T00:49:11.003Z,74.37
2022-08-29T00:53:17.439Z,74.59
2022-08-29T00:57:22.525Z,74.60
2022-08-29T01:01:27.111Z,74.46
2022-08-29T01:05:30.661Z,74.73
2022-08-29T01:09:36.034Z,74.85
2022-08-29T01:13:44.049Z,74.74
2022-08-29T01:17:50.056Z,75.03
2022-08-29T01:22:04.684Z,75.08
2022-08-29T01:26:12.003Z,74.83
2022-08-29T01:30:16.331Z,74.81
2022-08-29T01:34:21.152Z,74.90
2022-08-29T01:38:28.667Z,75.25
2022-08-29T01:42:36.504Z,74.79
2022-08-29T01:46:40.705Z,74.88
2022-08-29T01:50:43.782Z,74.83
2022-08-29T01:54:47.347Z,74.50
2022-08-29T01:58:53.653Z,74.54
2022-08-29T02:03:00.377Z,74.66
2022-08-29T02:07:03.745Z,74.66
2022-08-29T02:11:10.105Z,74.26
2022-08-29T02:15:14.795Z,74.02
2022-08-29T02:19:18.355Z,74.09
2022-08-29T02:23:30.458Z,74.21
2022-08-29T02:27:34.479Z,74.25
2022-08-29T02:31:40.050Z,74.42
2022-08-29T02:35:44.084Z,74.38
2022-08-29T02:39:47.296Z,74.32
2022-08-29T02:43:50.470Z,74.55
2022-08-29T02:47:54.928Z,74.13
2022-08-29T02:51:58.599Z,74.58
2022-08-29T02:56:02.232Z,74.36
2022-08-29T03:00:08.277Z,74.36
2022-08-29T03:04:12.925Z,74.33
2022-08-29T03:08:16.512Z,74.10
2022-08-29T03:12:19.765Z,74.31
2022-08-29T03:16:23.022Z,74.08
2022-08-29T03:20:27.521Z,73.83
2022-08-29T03:24:30.720Z,73.53
2022-08-29T03:28:33.783Z,73.62
2022-08-29T03:32:36.825Z,73.33
2022-08-29T03:36:41.321Z,73.12
2022-08-29T03:40:44.620Z,73.22
2022-08-29T03:44:47.906Z,72.83
2022-08-29T03:48:51.081Z,72.70
2022-08-29T03:52:55.732Z,72.70
2022-08-29T03:56:58.784Z,72.92
2022-08-29T04:01:02.723Z,72.38
2022-08-29T04:05:09.987Z,72.57
2022-08-29T04:09:14.581Z,72.48
2022-08-29T04:13:17.868Z,72.42
2022-08-29T04:17:21.165Z,72.63
2022-08-29T04:21:25.868Z,72.41
2022-08-29T04:25:37.108Z,72.90
2022-08-29T04:29:40.782Z,72.41
2022-08-29T04:33:43.888Z,72.33
2022-08-29T04:37:47.149Z,71.94
2022-08-29T04:41:51.816Z,72.07
2022-08-29T04:45:55.876Z,71.93
2022-08-29T04:49:59.022Z,72.01
2022-08-29T04:54:02.144Z,71.93
2022-08-29T04:58:06.861Z,71.77
2022-08-29T05:02:13.612Z,71.92
2022-08-29T05:06:18.487Z,71.86
2022-08-29T05:10:26.372Z,71.59
2022-08-29T05:14:31.137Z,71.57
2022-08-29T05:18:34.388Z,71.91
2022-08-29T05:22:39.326Z,71.53
2022-08-29T05:26:45.200Z,71.46
2022-08-29T05:30:49.850Z,71.63
2022-08-29T05:34:52.878Z,71.73
2022-08-29T05:38:56.153Z,71.86
2022-08-29T05:42:59.201Z,71.78
2022-08-29T05:47:04.828Z,71.74
2022-08-29T05:51:08.374Z,71.39
2022-08-29T05:55:12.156Z,71.08
2022-08-29T05:59:17.425Z,71.21
2022-08-29T06:03:21.897Z,71.39
2022-08-29T06:07:25.225Z,71.09
2022-08-29T06:11:31.190Z,70.85
2022-08-29T06:15:34.288Z,71.07
2022-08-29T06:19:39.643Z,70.90
2022-08-29T06:23:44.836Z,70.23
2022-08-29T06:27:47.934Z,70.72
2022-08-29T06:31:51.500Z,70.74
2022-08-29T06:36:05.261Z,70.38
2022-08-29T06:40:11.109Z,70.09
2022-08-29T06:44:14.509Z,70.13
2022-08-29T06:48:17.601Z,70.31
2022-08-29T06:52:22.195Z,70.34
2022-08-29T06:56:25.327Z,70.25
2022-08-29T07:00:29.863Z,70.15
2022-08-29T07:04:33.006Z,70.02
2022-08-29T07:08:43.708Z,70.00
2022-08-29T07:12:58.555Z,69.56
2022-08-29T07:17:01.662Z,69.15
2022-08-29T07:21:07.983Z,69.15
2022-08-29T07:25:12.842Z,69.10
2022-08-29T07:29:19.272Z,68.45
2022-08-29T07:33:22.592Z,67.67
2022-08-29T07:37:25.964Z,67.83
2022-08-29T07:41:30.714Z,67.25
2022-08-29T07:45:33.871Z,67.76
2022-08-29T07:49:41.734Z,67.46
2022-08-29T07:53:46.654Z,66.58
2022-08-29T07:57:53.272Z,66.38
2022-08-29T08:01:56.642Z,66.25
2022-08-29T08:06:00.724Z,66.05
2022-08-29T08:10:10.846Z,65.27
2022-08-29T08:14:15.306Z,64.79
2022-08-29T08:18:18.912Z,64.90
2022-08-29T08:22:22.061Z,65.16
2022-08-29T08:26:25.811Z,64.61
2022-08-29T08:30:34.991Z,64.43
2022-08-29T08:34:38.945Z,64.06
2022-08-29T08:38:42.407Z,63.95
2022-08-29T08:42:46.804Z,62.95
2022-08-29T08:46:53.848Z,63.04
2022-08-29T08:51:04.908Z,62.46
2022-08-29T08:55:16.116Z,61.26
2022-08-29T08:59:25.725Z,60.40
2022-08-29T09:04:04.574Z,60.82
2022-08-29T09:08:19.452Z,59.91
2022-08-29T09:12:36.368Z,60.33
2022-08-29T09:16:44.431Z,60.13
2022-08-29T09:20:49.144Z,59.77
2022-08-29T09:24:56.490Z,58.82
2022-08-29T09:29:00.060Z,58.74
2022-08-29T09:33:07.760Z,57.66
2022-08-29T09:37:24.318Z,58.00
2022-08-29T09:41:30.764Z,57.66
2022-08-29T09:45:34.338Z,57.11
2022-08-29T09:49:39.988Z,56.64
2022-08-29T09:53:44.875Z,56.57
2022-08-29T09:57:54.822Z,56.99
2022-08-29T10:02:23.715Z,56.67
2022-08-29T10:06:32.160Z,55.58
2022-08-29T10:10:37.949Z,54.80
2022-08-29T10:14:50.586Z,54.27
2022-08-29T10:18:58.847Z,53.61
2022-08-29T10:23:07.826Z,54.60
2022-08-29T10:27:24.965Z,54.12
2022-08-29T10:31:38.033Z,52.29
2022-08-29T10:35:54.388Z,53.14
2022-08-29T10:40:06.681Z,53.47
2022-08-29T10:44:25.146Z,53.89
2022-08-29T10:48:31.468Z,52.57
2022-08-29T10:52:39.751Z,52.65
2022-08-29T10:56:47.460Z,52.52
2022-08-29T11:00:58.470Z,52.48
2022-08-29T11:05:06.432Z,52.28
2022-08-29T11:09:14.679Z,51.59
2022-08-29T11:13:23.343Z,52.33
2022-08-29T11:17:33.434Z,52.48
2022-08-29T11:21:42.372Z,51.63
2022-08-29T11:25:46.285Z,51.44
2022-08-29T11:29:58.959Z,51.82
2022-08-29T11:34:22.681Z,49.82
2022-08-29T11:38:59.471Z,50.83
2022-08-29T11:43:13.663Z,49.81
2022-08-29T11:47:41.070Z,48.85
2022-08-29T11:51:46.135Z,49.48
2022-08-29T11:56:27.738Z,48.73
2022-08-29T12:00:43.084Z,47.99
2022-08-29T12:04:56.920Z,48.82
2022-08-29T12:09:13.340Z,48.25
2022-08-29T12:13:58.304Z,47.64
2022-08-29T12:18:23.789Z,47.75
2022-08-29T12:22:48.140Z,47.19
2022-08-29T12:26:51.508Z,46.90
2022-08-29T12:31:10.345Z,45.52
2022-08-29T12:35:37.110Z,46.53
2022-08-29T12:40:05.251Z,45.75
2022-08-29T12:44:13.869Z,46.07
2022-08-29T12:48:22.629Z,44.67
2022-08-29T12:52:30.500Z,45.29
2022-08-29T12:56:34.710Z,45.95
2022-08-29T13:00:37.996Z,45.67
2022-08-29T13:04:44.448Z,44.57
2022-08-29T13:08:50.121Z,45.24
2022-08-29T13:12:56.731Z,44.74
2022-08-29T13:16:59.874Z,45.04
2022-08-29T13:21:08.135Z,45.48
2022-08-29T13:25:16.676Z,44.91
2022-08-29T13:29:29.189Z,44.67
2022-08-29T13:33:35.088Z,44.97
2022-08-29T13:37:41.281Z,45.13
2022-08-29T13:41:48.924Z,44.65
2022-08-29T13:46:03.578Z,45.34
2022-08-29T13:50:09.850Z,45.01
2022-08-29T13:54:13.125Z,44.42
2022-08-29T13:58:22.576Z,44.86
2022-08-29T14:03:08.222Z,44.97
2022-08-29T14:07:18.109Z,44.90
2022-08-29T14:11:21.931Z,45.14
2022-08-29T14:15:26.574Z,44.42
2022-08-29T14:19:31.204Z,44.92
2022-08-29T14:23:34.721Z,44.95
2022-08-29T14:27:38.396Z,44.57
2022-08-29T14:31:43.285Z,45.00
2022-08-29T14:35:46.481Z,44.91
2022-08-29T14:39:50.416Z,44.91
2022-08-29T14:43:55.232Z,45.26
2022-08-29T14:48:00.333Z,45.40
2022-08-29T14:52:04.058Z,45.50
2022-08-29T14:56:07.681Z,45.73
2022-08-29T15:00:14.177Z,45.28
2022-08-29T15:04:18.692Z,44.09
2022-08-29T15:08:25.241Z,44.04
2022-08-29T15:12:29.102Z,44.91
2022-08-29T15:16:33.058Z,44.95
2022-08-29T15:20:40.147Z,45.16
2022-08-29T15:24:46.010Z,44.62
2022-08-29T15:28:49.277Z,44.85
2022-08-29T15:32:53.783Z,45.46
2022-08-29T15:37:00.128Z,44.84
2022-08-29T15:41:03.722Z,45.13
2022-08-29T15:45:10.337Z,44.74
2022-08-29T15:49:15.071Z,45.23
2022-08-29T15:53:23.246Z,45.62
2022-08-29T15:57:26.858Z,45.79
2022-08-29T16:01:33.078Z,45.64
2022-08-29T16:05:38.396Z,46.31
2022-08-29T16:09:43.075Z,45.88
2022-08-29T16:13:46.466Z,45.64
2022-08-29T16:17:49.985Z,46.37
2022-08-29T16:21:53.322Z,46.74
2022-08-29T16:25:58.369Z,46.66
2022-08-29T16:30:02.051Z,46.57
2022-08-29T16:34:05.689Z,47.23
2022-08-29T16:38:09.211Z,46.63
2022-08-29T16:42:14.281Z,47.31
2022-08-29T16:46:18.477Z,47.44
2022-08-29T16:50:22.080Z,47.73
2022-08-29T16:54:25.350Z,47.68
2022-08-29T16:58:47.414Z,48.32
2022-08-29T17:02:53.957Z,48.10
2022-08-29T17:06:57.615Z,48.84
2022-08-29T17:10:59.944Z,48.93
2022-08-29T17:15:04.501Z,49.18
2022-08-29T17:19:08.957Z,49.05
2022-08-29T17:23:13.517Z,49.81
2022-08-29T17:27:21.258Z,49.54
2022-08-29T17:31:33.494Z,50.19
2022-08-29T17:35:42.553Z,50.22
2022-08-29T17:39:48.540Z,50.95
2022-08-29T17:43:52.809Z,51.11
2022-08-29T17:47:57.679Z,50.95
2022-08-29T17:52:00.997Z,51.28
2022-08-29T17:56:13.464Z,51.19
2022-08-29T18:00:17.554Z,51.93
2022-08-29T18:04:23.190Z,51.91
2022-08-29T18:08:26.554Z,52.65
2022-08-29T18:12:31.194Z,52.56
2022-08-29T18:16:38.119Z,53.12
2022-08-29T18:20:43.212Z,53.62
2022-08-29T18:24:48.147Z,53.93
2022-08-29T18:28:51.970Z,54.62
2022-08-29T18:32:55.788Z,54.14
2022-08-29T18:37:00.778Z,54.11
2022-08-29T18:41:04.276Z,54.17
2022-08-29T18:45:09.201Z,54.80
2022-08-29T18:49:12.497Z,54.90
2022-08-29T18:53:20.369Z,55.59
2022-08-29T18:57:23.430Z,55.20
2022-08-29T19:01:28.958Z,55.36
2022-08-29T19:05:35.009Z,55.23
2022-08-29T19:09:39.796Z,55.20
2022-08-29T19:13:43.397Z,54.98
2022-08-29T19:17:46.864Z,55.47
2022-08-29T19:21:52.458Z,55.10
2022-08-29T19:25:57.652Z,54.80
2022-08-29T19:30:05.431Z,54.81
2022-08-29T19:34:08.952Z,54.85
2022-08-29T19:38:12.483Z,54.65
2022-08-29T19:42:17.132Z,55.10
2022-08-29T19:46:23.911Z,55.07
2022-08-29T19:50:27.851Z,55.70
2022-08-29T19:54:30.931Z,55.75
2022-08-29T19:58:35.633Z,56.56
2022-08-29T20:02:39.038Z,56.20
2022-08-29T20:06:43.977Z,56.65
2022-08-29T20:10:49.629Z,56.67
2022-08-29T20:14:54.917Z,56.50
2022-08-29T20:18:58.276Z,56.69
2022-08-29T20:23:01.557Z,57.33
2022-08-29T20:27:05.497Z,57.41
2022-08-29T20:31:10.691Z,56.88
2022-08-29T20:35:34.285Z,56.90
2022-08-29T20:39:39.041Z,57.04
2022-08-29T20:43:42.483Z,57.34
2022-08-29T20:47:46.967Z,57.79
2022-08-29T20:51:51.278Z,57.95
2022-08-29T20:55:54.576Z,57.86
2022-08-29T21:00:02.141Z,57.70
2022-08-29T21:04:24.977Z,57.94
2022-08-29T21:08:28.251Z,58.60
2022-08-29T21:12:31.548Z,58.58
2022-08-29T21:16:36.485Z,58.87
2022-08-29T21:20:53.462Z,59.39
2022-08-29T21:24:57.595Z,59.33
2022-08-29T21:29:00.827Z,60.14
2022-08-29T21:33:04.363Z,60.47
2022-08-29T21:37:08.867Z,60.32
2022-08-29T21:41:13.275Z,60.82
2022-08-29T21:45:16.468Z,61.08
2022-08-29T21:49:21.813Z,60.89
2022-08-29T21:53:26.252Z,60.87
2022-08-29T21:57:46.776Z,61.26
2022-08-29T22:01:52.678Z,61.23
2022-08-29T22:05:58.243Z,61.39
2022-08-29T22:10:03.660Z,61.38
2022-08-29T22:14:07.773Z,61.25
2022-08-29T22:18:12.370Z,61.82
2022-08-29T22:22:15.674Z,61.64
2022-08-29T22:26:20.480Z,61.92
2022-08-29T22:30:23.794Z,61.95
2022-08-29T22:34:35.616Z,62.51
2022-08-29T22:38:38.852Z,62.66
2022-08-29T22:42:43.834Z,62.72
2022-08-29T22:46:47.137Z,62.69
2022-08-29T22:50:58.265Z,62.67
2022-08-29T22:55:01.731Z,63.07
2022-08-29T22:59:07.366Z,63.18
2022-08-29T23:03:11.125Z,63.27
2022-08-29T23:07:14.239Z,63.48
2022-08-29T23:11:17.382Z,63.47
2022-08-29T23:15:22.070Z,64.01
2022-08-29T23:19:25.135Z,63.63
2022-08-29T23:23:28.294Z,63.86
2022-08-29T23:27:33.890Z,64.05
2022-08-29T23:31:38.644Z,64.04
2022-08-29T23:35:41.798Z,64.13
2022-08-29T23:39:44.938Z,64.30
2022-08-29T23:43:47.969Z,64.35
2022-08-29T23:47:52.594Z,64.50
2022-08-29T23:51:55.600Z,64.16
2022-08-29T23:55:58.970Z,64.48
